sensor_id;sensor_type;location;lat;lon;timestamp;temperature;humidity
13409;DHT22;6775;49.574;11.170;2023-03-31T00:00:51;8.80;99.90
13409;DHT22;6775;49.574;11.170;2023-03-31T00:03:19;8.80;99.90
13409;DHT22;6775;49.574;11.170;2023-03-31T00:05:54;8.70;99.90
13409;DHT22;6775;49.574;11.170;2023-03-31T00:08:25;8.70;99.90
13409;DHT22;6775;49.574;11.170;2023-03-31T00:10:58;8.60;99.90
13409;DHT22;6775;49.574;11.170;2023-03-31T00:13:27;8.60;99.90
13409;DHT22;6775;49.574;11.170;2023-03-31T00:15:59;8.70;99.90
13409;DHT22;6775;49.574;11.170;2023-03-31T00:18:27;8.80;99.90
13409;DHT22;6775;49.574;11.170;2023-03-31T00:21:05;8.80;99.90
13409;DHT22;6775;49.574;11.170;2023-03-31T00:23:35;8.80;99.90
13409;DHT22;6775;49.574;11.170;2023-03-31T00:26:03;8.80;99.90
13409;DHT22;6775;49.574;11.170;2023-03-31T00:28:32;8.90;99.90
13409;DHT22;6775;49.574;11.170;2023-03-31T00:31:00;8.90;99.90
13409;DHT22;6775;49.574;11.170;2023-03-31T00:33:28;8.90;99.90
13409;DHT22;6775;49.574;11.170;2023-03-31T00:35:57;8.90;99.90
13409;DHT22;6775;49.574;11.170;2023-03-31T00:38:27;8.90;99.90
13409;DHT22;6775;49.574;11.170;2023-03-31T00:40:57;8.90;99.90
13409;DHT22;6775;49.574;11.170;2023-03-31T00:43:30;8.90;99.90
13409;DHT22;6775;49.574;11.170;2023-03-31T00:46:10;8.80;99.90
13409;DHT22;6775;49.574;11.170;2023-03-31T00:48:46;8.80;99.90
13409;DHT22;6775;49.574;11.170;2023-03-31T00:51:16;8.70;99.90
13409;DHT22;6775;49.574;11.170;2023-03-31T00:53:46;8.70;99.90
13409;DHT22;6775;49.574;11.170;2023-03-31T00:56:18;8.70;99.90
13409;DHT22;6775;49.574;11.170;2023-03-31T00:58:46;8.70;99.90
13409;DHT22;6775;49.574;11.170;2023-03-31T01:01:17;8.60;99.90
13409;DHT22;6775;49.574;11.170;2023-03-31T01:03:46;8.60;99.90
13409;DHT22;6775;49.574;11.170;2023-03-31T01:06:17;8.70;99.90
13409;DHT22;6775;49.574;11.170;2023-03-31T01:08:47;8.70;99.90
13409;DHT22;6775;49.574;11.170;2023-03-31T01:11:19;8.70;99.90
13409;DHT22;6775;49.574;11.170;2023-03-31T01:13:49;8.70;99.90
13409;DHT22;6775;49.574;11.170;2023-03-31T01:16:18;8.70;99.90
13409;DHT22;6775;49.574;11.170;2023-03-31T01:18:46;8.70;99.90
13409;DHT22;6775;49.574;11.170;2023-03-31T01:21:45;8.70;99.90
13409;DHT22;6775;49.574;11.170;2023-03-31T01:24:57;8.60;99.90
13409;DHT22;6775;49.574;11.170;2023-03-31T01:27:45;8.60;99.90
13409;DHT22;6775;49.574;11.170;2023-03-31T01:33:54;8.50;99.90
13409;DHT22;6775;49.574;11.170;2023-03-31T01:39:48;8.50;99.90
13409;DHT22;6775;49.574;11.170;2023-03-31T01:42:26;8.40;99.90
13409;DHT22;6775;49.574;11.170;2023-03-31T01:45:01;8.30;99.90
13409;DHT22;6775;49.574;11.170;2023-03-31T01:47:36;8.30;99.90
13409;DHT22;6775;49.574;11.170;2023-03-31T01:50:10;8.30;99.90
13409;DHT22;6775;49.574;11.170;2023-03-31T01:52:47;8.30;99.90
13409;DHT22;6775;49.574;11.170;2023-03-31T01:55:19;8.40;99.90
13409;DHT22;6775;49.574;11.170;2023-03-31T01:57:52;8.30;99.90
13409;DHT22;6775;49.574;11.170;2023-03-31T02:00:24;8.30;99.90
13409;DHT22;6775;49.574;11.170;2023-03-31T02:02:58;8.30;99.90
13409;DHT22;6775;49.574;11.170;2023-03-31T02:05:32;8.30;99.90
13409;DHT22;6775;49.574;11.170;2023-03-31T02:08:05;8.30;99.90
13409;DHT22;6775;49.574;11.170;2023-03-31T02:10:34;8.30;99.90
13409;DHT22;6775;49.574;11.170;2023-03-31T02:13:04;8.20;99.90
13409;DHT22;6775;49.574;11.170;2023-03-31T02:15:35;8.30;99.90
13409;DHT22;6775;49.574;11.170;2023-03-31T02:18:06;8.30;99.90
13409;DHT22;6775;49.574;11.170;2023-03-31T02:20:38;8.20;99.90
13409;DHT22;6775;49.574;11.170;2023-03-31T02:23:09;8.20;99.90
13409;DHT22;6775;49.574;11.170;2023-03-31T02:25:44;8.20;99.90
13409;DHT22;6775;49.574;11.170;2023-03-31T02:28:19;8.30;99.90
13409;DHT22;6775;49.574;11.170;2023-03-31T02:30:52;8.20;99.90
13409;DHT22;6775;49.574;11.170;2023-03-31T02:33:21;8.30;99.90
13409;DHT22;6775;49.574;11.170;2023-03-31T02:35:49;8.30;99.90
13409;DHT22;6775;49.574;11.170;2023-03-31T02:38:17;8.30;99.90
13409;DHT22;6775;49.574;11.170;2023-03-31T02:40:47;8.30;99.90
13409;DHT22;6775;49.574;11.170;2023-03-31T02:43:15;8.30;99.90
13409;DHT22;6775;49.574;11.170;2023-03-31T02:45:44;8.30;99.90
13409;DHT22;6775;49.574;11.170;2023-03-31T02:48:16;8.40;99.90
13409;DHT22;6775;49.574;11.170;2023-03-31T02:50:57;8.40;99.90
13409;DHT22;6775;49.574;11.170;2023-03-31T02:53:33;8.40;99.90
13409;DHT22;6775;49.574;11.170;2023-03-31T02:56:17;8.40;99.90
13409;DHT22;6775;49.574;11.170;2023-03-31T02:58:57;8.40;99.90
13409;DHT22;6775;49.574;11.170;2023-03-31T03:01:41;8.50;99.90
13409;DHT22;6775;49.574;11.170;2023-03-31T03:04:22;8.40;99.90
13409;DHT22;6775;49.574;11.170;2023-03-31T03:07:01;8.50;99.90
13409;DHT22;6775;49.574;11.170;2023-03-31T03:09:36;8.40;99.90
13409;DHT22;6775;49.574;11.170;2023-03-31T03:12:12;8.50;99.90
13409;DHT22;6775;49.574;11.170;2023-03-31T03:14:46;8.50;99.90
13409;DHT22;6775;49.574;11.170;2023-03-31T03:17:20;8.50;99.90
13409;DHT22;6775;49.574;11.170;2023-03-31T03:19:52;8.60;99.90
13409;DHT22;6775;49.574;11.170;2023-03-31T03:22:21;8.60;99.90
13409;DHT22;6775;49.574;11.170;2023-03-31T03:24:49;8.60;99.90
13409;DHT22;6775;49.574;11.170;2023-03-31T03:27:19;8.60;99.90
13409;DHT22;6775;49.574;11.170;2023-03-31T03:29:48;8.70;99.90
13409;DHT22;6775;49.574;11.170;2023-03-31T03:32:16;8.70;99.90
13409;DHT22;6775;49.574;11.170;2023-03-31T03:34:44;8.70;99.90
13409;DHT22;6775;49.574;11.170;2023-03-31T03:37:12;8.70;99.90
13409;DHT22;6775;49.574;11.170;2023-03-31T03:39:39;8.60;99.90
13409;DHT22;6775;49.574;11.170;2023-03-31T03:42:07;8.60;99.90
13409;DHT22;6775;49.574;11.170;2023-03-31T03:44:36;8.60;99.90
13409;DHT22;6775;49.574;11.170;2023-03-31T03:47:04;8.60;99.90
13409;DHT22;6775;49.574;11.170;2023-03-31T03:49:32;8.50;99.90
13409;DHT22;6775;49.574;11.170;2023-03-31T03:52:00;8.50;99.90
13409;DHT22;6775;49.574;11.170;2023-03-31T03:54:28;8.50;99.90
13409;DHT22;6775;49.574;11.170;2023-03-31T03:56:56;8.50;99.90
13409;DHT22;6775;49.574;11.170;2023-03-31T03:59:24;8.60;99.90
13409;DHT22;6775;49.574;11.170;2023-03-31T04:01:53;8.40;99.90
13409;DHT22;6775;49.574;11.170;2023-03-31T04:04:21;8.40;99.90
13409;DHT22;6775;49.574;11.170;2023-03-31T04:06:49;8.50;99.90
13409;DHT22;6775;49.574;11.170;2023-03-31T04:09:17;8.50;99.90
13409;DHT22;6775;49.574;11.170;2023-03-31T04:11:45;8.60;99.90
13409;DHT22;6775;49.574;11.170;2023-03-31T04:14:12;8.60;99.90
13409;DHT22;6775;49.574;11.170;2023-03-31T04:16:40;8.60;99.90
13409;DHT22;6775;49.574;11.170;2023-03-31T04:19:09;8.60;99.90
13409;DHT22;6775;49.574;11.170;2023-03-31T04:21:38;8.60;99.90
13409;DHT22;6775;49.574;11.170;2023-03-31T04:24:11;8.70;99.90
13409;DHT22;6775;49.574;11.170;2023-03-31T04:26:41;8.60;99.90
13409;DHT22;6775;49.574;11.170;2023-03-31T04:29:10;8.60;99.90
13409;DHT22;6775;49.574;11.170;2023-03-31T04:31:39;8.60;99.90
13409;DHT22;6775;49.574;11.170;2023-03-31T04:34:11;8.60;99.90
13409;DHT22;6775;49.574;11.170;2023-03-31T04:36:40;8.60;99.90
13409;DHT22;6775;49.574;11.170;2023-03-31T04:39:13;8.60;99.90
13409;DHT22;6775;49.574;11.170;2023-03-31T04:41:41;8.70;99.90
13409;DHT22;6775;49.574;11.170;2023-03-31T04:44:09;8.70;99.90
13409;DHT22;6775;49.574;11.170;2023-03-31T04:46:37;8.70;99.90
13409;DHT22;6775;49.574;11.170;2023-03-31T04:49:04;8.70;99.90
13409;DHT22;6775;49.574;11.170;2023-03-31T04:51:33;8.70;99.90
13409;DHT22;6775;49.574;11.170;2023-03-31T04:54:01;8.70;99.90
13409;DHT22;6775;49.574;11.170;2023-03-31T04:56:29;8.70;99.90
13409;DHT22;6775;49.574;11.170;2023-03-31T04:58:59;8.70;99.90
13409;DHT22;6775;49.574;11.170;2023-03-31T05:01:29;8.70;99.90
13409;DHT22;6775;49.574;11.170;2023-03-31T05:03:59;8.70;99.90
13409;DHT22;6775;49.574;11.170;2023-03-31T05:06:27;8.60;99.90
13409;DHT22;6775;49.574;11.170;2023-03-31T05:08:56;8.60;99.90
13409;DHT22;6775;49.574;11.170;2023-03-31T05:11:24;8.60;99.90
13409;DHT22;6775;49.574;11.170;2023-03-31T05:13:52;8.60;99.90
13409;DHT22;6775;49.574;11.170;2023-03-31T05:16:19;8.60;99.90
13409;DHT22;6775;49.574;11.170;2023-03-31T05:18:47;8.70;99.90
13409;DHT22;6775;49.574;11.170;2023-03-31T05:21:16;8.60;99.90
13409;DHT22;6775;49.574;11.170;2023-03-31T05:23:44;8.70;99.90
13409;DHT22;6775;49.574;11.170;2023-03-31T05:26:14;8.70;99.90
13409;DHT22;6775;49.574;11.170;2023-03-31T05:28:42;8.70;99.90
13409;DHT22;6775;49.574;11.170;2023-03-31T05:31:10;8.70;99.90
13409;DHT22;6775;49.574;11.170;2023-03-31T05:33:40;8.80;99.90
13409;DHT22;6775;49.574;11.170;2023-03-31T05:36:08;8.80;99.90
13409;DHT22;6775;49.574;11.170;2023-03-31T05:38:37;8.80;99.90
13409;DHT22;6775;49.574;11.170;2023-03-31T05:41:05;8.80;99.90
13409;DHT22;6775;49.574;11.170;2023-03-31T05:43:36;8.80;99.90
13409;DHT22;6775;49.574;11.170;2023-03-31T05:46:04;8.90;99.90
13409;DHT22;6775;49.574;11.170;2023-03-31T05:48:33;8.90;99.90
13409;DHT22;6775;49.574;11.170;2023-03-31T05:51:03;8.90;99.90
13409;DHT22;6775;49.574;11.170;2023-03-31T05:53:31;9.00;99.90
13409;DHT22;6775;49.574;11.170;2023-03-31T05:56:00;9.00;99.90
13409;DHT22;6775;49.574;11.170;2023-03-31T05:58:29;9.00;99.90
13409;DHT22;6775;49.574;11.170;2023-03-31T06:01:02;9.00;99.90
13409;DHT22;6775;49.574;11.170;2023-03-31T06:03:35;9.00;99.90
13409;DHT22;6775;49.574;11.170;2023-03-31T06:06:04;9.00;99.90
13409;DHT22;6775;49.574;11.170;2023-03-31T06:08:34;9.00;99.90
13409;DHT22;6775;49.574;11.170;2023-03-31T06:11:04;9.00;99.90
13409;DHT22;6775;49.574;11.170;2023-03-31T06:13:32;9.00;99.90
13409;DHT22;6775;49.574;11.170;2023-03-31T06:16:02;9.00;99.90
13409;DHT22;6775;49.574;11.170;2023-03-31T06:18:33;8.90;99.90
13409;DHT22;6775;49.574;11.170;2023-03-31T06:21:02;8.90;99.90
13409;DHT22;6775;49.574;11.170;2023-03-31T06:23:30;8.90;99.90
13409;DHT22;6775;49.574;11.170;2023-03-31T06:26:00;8.90;99.90
13409;DHT22;6775;49.574;11.170;2023-03-31T06:28:29;8.90;99.90
13409;DHT22;6775;49.574;11.170;2023-03-31T06:31:03;8.90;99.90
13409;DHT22;6775;49.574;11.170;2023-03-31T06:33:32;8.90;99.90
13409;DHT22;6775;49.574;11.170;2023-03-31T06:36:01;9.00;99.90
13409;DHT22;6775;49.574;11.170;2023-03-31T06:38:31;9.00;99.90
13409;DHT22;6775;49.574;11.170;2023-03-31T06:40:59;9.00;99.90
13409;DHT22;6775;49.574;11.170;2023-03-31T06:43:27;9.00;99.90
13409;DHT22;6775;49.574;11.170;2023-03-31T06:45:55;9.00;99.90
13409;DHT22;6775;49.574;11.170;2023-03-31T06:48:25;9.00;99.90
13409;DHT22;6775;49.574;11.170;2023-03-31T06:50:53;9.00;99.90
13409;DHT22;6775;49.574;11.170;2023-03-31T06:53:21;8.90;99.90
13409;DHT22;6775;49.574;11.170;2023-03-31T06:55:49;8.90;99.90
13409;DHT22;6775;49.574;11.170;2023-03-31T06:58:17;8.90;99.90
13409;DHT22;6775;49.574;11.170;2023-03-31T07:00:45;8.90;99.90
13409;DHT22;6775;49.574;11.170;2023-03-31T07:03:14;8.90;99.90
13409;DHT22;6775;49.574;11.170;2023-03-31T07:05:48;8.90;99.90
13409;DHT22;6775;49.574;11.170;2023-03-31T07:08:17;8.90;99.90
13409;DHT22;6775;49.574;11.170;2023-03-31T07:10:45;8.90;99.90
13409;DHT22;6775;49.574;11.170;2023-03-31T07:13:14;8.90;99.90
13409;DHT22;6775;49.574;11.170;2023-03-31T07:15:43;8.90;99.90
13409;DHT22;6775;49.574;11.170;2023-03-31T07:18:11;8.90;99.90
13409;DHT22;6775;49.574;11.170;2023-03-31T07:20:41;8.90;99.90
13409;DHT22;6775;49.574;11.170;2023-03-31T07:23:10;8.90;99.90
13409;DHT22;6775;49.574;11.170;2023-03-31T07:25:38;8.90;99.90
13409;DHT22;6775;49.574;11.170;2023-03-31T07:28:06;9.00;99.90
13409;DHT22;6775;49.574;11.170;2023-03-31T07:30:33;9.00;99.90
13409;DHT22;6775;49.574;11.170;2023-03-31T07:33:02;9.00;99.90
13409;DHT22;6775;49.574;11.170;2023-03-31T07:35:29;9.00;99.90
13409;DHT22;6775;49.574;11.170;2023-03-31T07:37:57;9.10;99.90
13409;DHT22;6775;49.574;11.170;2023-03-31T07:40:27;9.20;99.90
13409;DHT22;6775;49.574;11.170;2023-03-31T07:42:56;9.10;99.90
13409;DHT22;6775;49.574;11.170;2023-03-31T07:45:25;9.10;99.90
13409;DHT22;6775;49.574;11.170;2023-03-31T07:47:54;9.20;99.90
13409;DHT22;6775;49.574;11.170;2023-03-31T07:50:22;9.20;99.90
13409;DHT22;6775;49.574;11.170;2023-03-31T07:52:50;9.20;99.90
13409;DHT22;6775;49.574;11.170;2023-03-31T07:55:18;9.20;99.90
13409;DHT22;6775;49.574;11.170;2023-03-31T07:57:48;9.30;99.90
13409;DHT22;6775;49.574;11.170;2023-03-31T08:00:17;9.30;99.90
13409;DHT22;6775;49.574;11.170;2023-03-31T08:02:45;9.30;99.90
13409;DHT22;6775;49.574;11.170;2023-03-31T08:05:15;9.30;99.90
13409;DHT22;6775;49.574;11.170;2023-03-31T08:07:45;9.40;99.90
13409;DHT22;6775;49.574;11.170;2023-03-31T08:10:15;9.40;99.90
13409;DHT22;6775;49.574;11.170;2023-03-31T08:12:43;9.30;99.90
13409;DHT22;6775;49.574;11.170;2023-03-31T08:15:13;9.30;99.90
13409;DHT22;6775;49.574;11.170;2023-03-31T08:17:41;9.30;99.90
13409;DHT22;6775;49.574;11.170;2023-03-31T08:20:09;9.30;99.90
13409;DHT22;6775;49.574;11.170;2023-03-31T08:22:39;9.30;99.90
13409;DHT22;6775;49.574;11.170;2023-03-31T08:25:08;9.30;99.90
13409;DHT22;6775;49.574;11.170;2023-03-31T08:27:37;9.20;99.90
13409;DHT22;6775;49.574;11.170;2023-03-31T08:30:08;9.30;99.90
13409;DHT22;6775;49.574;11.170;2023-03-31T08:32:38;9.30;99.90
13409;DHT22;6775;49.574;11.170;2023-03-31T08:35:07;9.30;99.90
13409;DHT22;6775;49.574;11.170;2023-03-31T08:37:35;9.30;99.90
13409;DHT22;6775;49.574;11.170;2023-03-31T08:40:04;9.30;99.90
13409;DHT22;6775;49.574;11.170;2023-03-31T08:42:38;9.30;99.90
13409;DHT22;6775;49.574;11.170;2023-03-31T08:45:12;9.30;99.90
13409;DHT22;6775;49.574;11.170;2023-03-31T08:47:46;9.30;99.90
13409;DHT22;6775;49.574;11.170;2023-03-31T08:50:19;9.30;99.90
13409;DHT22;6775;49.574;11.170;2023-03-31T08:52:51;9.30;99.90
13409;DHT22;6775;49.574;11.170;2023-03-31T08:55:24;9.40;99.90
13409;DHT22;6775;49.574;11.170;2023-03-31T08:58:00;9.50;99.90
13409;DHT22;6775;49.574;11.170;2023-03-31T09:00:36;9.60;99.90
13409;DHT22;6775;49.574;11.170;2023-03-31T09:03:14;9.60;99.90
13409;DHT22;6775;49.574;11.170;2023-03-31T09:05:49;9.60;99.90
13409;DHT22;6775;49.574;11.170;2023-03-31T09:08:32;9.60;99.90
13409;DHT22;6775;49.574;11.170;2023-03-31T09:11:21;9.70;99.90
13409;DHT22;6775;49.574;11.170;2023-03-31T09:14:12;9.80;99.90
13409;DHT22;6775;49.574;11.170;2023-03-31T09:16:45;9.80;99.90
13409;DHT22;6775;49.574;11.170;2023-03-31T09:19:30;9.90;99.90
13409;DHT22;6775;49.574;11.170;2023-03-31T09:22:00;9.90;99.90
13409;DHT22;6775;49.574;11.170;2023-03-31T09:24:31;9.90;99.90
13409;DHT22;6775;49.574;11.170;2023-03-31T09:27:02;10.00;99.90
13409;DHT22;6775;49.574;11.170;2023-03-31T09:29:39;10.00;99.90
13409;DHT22;6775;49.574;11.170;2023-03-31T09:32:13;10.10;99.90
13409;DHT22;6775;49.574;11.170;2023-03-31T09:34:45;10.10;99.90
13409;DHT22;6775;49.574;11.170;2023-03-31T09:37:13;10.20;99.90
13409;DHT22;6775;49.574;11.170;2023-03-31T09:39:41;10.20;99.90
13409;DHT22;6775;49.574;11.170;2023-03-31T09:42:11;10.30;99.90
13409;DHT22;6775;49.574;11.170;2023-03-31T09:44:40;10.30;99.90
13409;DHT22;6775;49.574;11.170;2023-03-31T09:47:14;10.40;99.90
13409;DHT22;6775;49.574;11.170;2023-03-31T09:49:45;10.40;99.90
13409;DHT22;6775;49.574;11.170;2023-03-31T09:52:26;10.50;99.90
13409;DHT22;6775;49.574;11.170;2023-03-31T09:54:58;10.60;99.90
13409;DHT22;6775;49.574;11.170;2023-03-31T09:57:28;10.70;99.90
13409;DHT22;6775;49.574;11.170;2023-03-31T10:00:05;10.90;99.90
13409;DHT22;6775;49.574;11.170;2023-03-31T10:02:42;11.10;99.90
13409;DHT22;6775;49.574;11.170;2023-03-31T10:05:27;11.60;99.90
13409;DHT22;6775;49.574;11.170;2023-03-31T10:08:21;12.20;99.90
13409;DHT22;6775;49.574;11.170;2023-03-31T10:10:52;12.70;99.90
13409;DHT22;6775;49.574;11.170;2023-03-31T10:13:22;13.10;99.90
13409;DHT22;6775;49.574;11.170;2023-03-31T10:15:52;13.50;99.90
13409;DHT22;6775;49.574;11.170;2023-03-31T10:18:30;13.60;99.90
13409;DHT22;6775;49.574;11.170;2023-03-31T10:21:02;13.70;99.90
13409;DHT22;6775;49.574;11.170;2023-03-31T10:23:32;13.50;99.90
13409;DHT22;6775;49.574;11.170;2023-03-31T10:26:03;13.30;99.90
13409;DHT22;6775;49.574;11.170;2023-03-31T10:28:33;13.20;99.90
13409;DHT22;6775;49.574;11.170;2023-03-31T10:31:01;13.10;99.90
13409;DHT22;6775;49.574;11.170;2023-03-31T10:33:30;13.20;99.90
13409;DHT22;6775;49.574;11.170;2023-03-31T10:36:07;13.20;99.90
13409;DHT22;6775;49.574;11.170;2023-03-31T10:38:37;13.20;99.90
13409;DHT22;6775;49.574;11.170;2023-03-31T10:41:06;13.10;99.90
13409;DHT22;6775;49.574;11.170;2023-03-31T10:43:37;13.00;99.90
13409;DHT22;6775;49.574;11.170;2023-03-31T10:46:07;13.00;99.90
13409;DHT22;6775;49.574;11.170;2023-03-31T10:48:37;13.00;99.90
13409;DHT22;6775;49.574;11.170;2023-03-31T10:51:15;13.10;99.90
13409;DHT22;6775;49.574;11.170;2023-03-31T10:53:45;13.20;99.90
13409;DHT22;6775;49.574;11.170;2023-03-31T10:56:35;13.40;99.90
13409;DHT22;6775;49.574;11.170;2023-03-31T10:59:23;13.50;99.90
13409;DHT22;6775;49.574;11.170;2023-03-31T11:02:10;13.60;99.90
13409;DHT22;6775;49.574;11.170;2023-03-31T11:04:46;13.70;99.90
13409;DHT22;6775;49.574;11.170;2023-03-31T11:07:30;13.70;99.90
13409;DHT22;6775;49.574;11.170;2023-03-31T11:10:14;13.70;99.90
13409;DHT22;6775;49.574;11.170;2023-03-31T11:12:48;13.60;99.90
13409;DHT22;6775;49.574;11.170;2023-03-31T11:15:22;13.60;99.90
13409;DHT22;6775;49.574;11.170;2023-03-31T11:18:00;13.60;99.90
13409;DHT22;6775;49.574;11.170;2023-03-31T11:20:35;13.60;99.90
13409;DHT22;6775;49.574;11.170;2023-03-31T11:23:14;13.60;99.90
13409;DHT22;6775;49.574;11.170;2023-03-31T11:25:47;13.60;99.90
13409;DHT22;6775;49.574;11.170;2023-03-31T11:28:28;13.60;99.90
13409;DHT22;6775;49.574;11.170;2023-03-31T11:31:10;13.50;99.90
13409;DHT22;6775;49.574;11.170;2023-03-31T11:33:56;13.50;99.90
13409;DHT22;6775;49.574;11.170;2023-03-31T11:36:39;13.40;99.90
13409;DHT22;6775;49.574;11.170;2023-03-31T11:39:20;13.30;99.90
13409;DHT22;6775;49.574;11.170;2023-03-31T11:41:54;13.20;99.90
13409;DHT22;6775;49.574;11.170;2023-03-31T11:44:27;13.20;99.90
13409;DHT22;6775;49.574;11.170;2023-03-31T11:47:00;12.90;99.90
13409;DHT22;6775;49.574;11.170;2023-03-31T11:49:30;12.60;99.90
13409;DHT22;6775;49.574;11.170;2023-03-31T11:52:07;12.40;99.90
13409;DHT22;6775;49.574;11.170;2023-03-31T11:54:40;12.20;99.90
13409;DHT22;6775;49.574;11.170;2023-03-31T11:57:12;11.90;99.90
13409;DHT22;6775;49.574;11.170;2023-03-31T11:59:43;11.70;99.90
13409;DHT22;6775;49.574;11.170;2023-03-31T12:02:16;11.60;99.90
13409;DHT22;6775;49.574;11.170;2023-03-31T12:04:48;11.60;99.90
13409;DHT22;6775;49.574;11.170;2023-03-31T12:07:23;11.60;99.90
13409;DHT22;6775;49.574;11.170;2023-03-31T12:09:58;11.50;99.90
13409;DHT22;6775;49.574;11.170;2023-03-31T12:12:33;11.50;99.90
13409;DHT22;6775;49.574;11.170;2023-03-31T12:15:12;11.30;99.90
13409;DHT22;6775;49.574;11.170;2023-03-31T12:17:42;11.00;99.90
13409;DHT22;6775;49.574;11.170;2023-03-31T12:20:19;10.90;99.90
13409;DHT22;6775;49.574;11.170;2023-03-31T12:22:49;10.90;99.90
13409;DHT22;6775;49.574;11.170;2023-03-31T12:25:20;10.90;99.90
13409;DHT22;6775;49.574;11.170;2023-03-31T12:27:51;10.90;99.90
13409;DHT22;6775;49.574;11.170;2023-03-31T12:30:28;11.00;99.90
13409;DHT22;6775;49.574;11.170;2023-03-31T12:33:01;11.00;99.90
13409;DHT22;6775;49.574;11.170;2023-03-31T12:35:40;11.10;99.90
13409;DHT22;6775;49.574;11.170;2023-03-31T12:38:21;11.20;99.90
13409;DHT22;6775;49.574;11.170;2023-03-31T12:41:01;11.30;99.90
13409;DHT22;6775;49.574;11.170;2023-03-31T12:43:54;11.40;99.90
13409;DHT22;6775;49.574;11.170;2023-03-31T12:46:50;11.40;99.90
13409;DHT22;6775;49.574;11.170;2023-03-31T12:49:45;11.30;99.90
13409;DHT22;6775;49.574;11.170;2023-03-31T12:52:18;11.20;99.90
13409;DHT22;6775;49.574;11.170;2023-03-31T12:57:43;11.20;99.90
13409;DHT22;6775;49.574;11.170;2023-03-31T13:00:21;11.40;99.90
13409;DHT22;6775;49.574;11.170;2023-03-31T13:02:49;11.50;99.90
13409;DHT22;6775;49.574;11.170;2023-03-31T13:05:42;11.60;99.90
13409;DHT22;6775;49.574;11.170;2023-03-31T13:08:51;11.70;99.90
13409;DHT22;6775;49.574;11.170;2023-03-31T13:11:22;11.80;99.90
13409;DHT22;6775;49.574;11.170;2023-03-31T13:14:03;11.70;99.90
13409;DHT22;6775;49.574;11.170;2023-03-31T13:16:33;11.50;99.90
13409;DHT22;6775;49.574;11.170;2023-03-31T13:19:04;11.30;99.90
13409;DHT22;6775;49.574;11.170;2023-03-31T13:21:51;11.10;99.90
13409;DHT22;6775;49.574;11.170;2023-03-31T13:24:21;10.80;99.90
13409;DHT22;6775;49.574;11.170;2023-03-31T13:26:50;10.60;99.90
13409;DHT22;6775;49.574;11.170;2023-03-31T13:29:24;10.40;99.90
13409;DHT22;6775;49.574;11.170;2023-03-31T13:32:06;10.20;99.90
13409;DHT22;6775;49.574;11.170;2023-03-31T13:34:40;10.20;99.90
13409;DHT22;6775;49.574;11.170;2023-03-31T13:37:16;10.10;99.90
13409;DHT22;6775;49.574;11.170;2023-03-31T13:40:36;10.20;99.90
13409;DHT22;6775;49.574;11.170;2023-03-31T13:43:32;10.30;99.90
13409;DHT22;6775;49.574;11.170;2023-03-31T13:52:42;11.20;99.90
13409;DHT22;6775;49.574;11.170;2023-03-31T13:58:24;11.60;99.90
13409;DHT22;6775;49.574;11.170;2023-03-31T14:04:40;12.00;99.90
13409;DHT22;6775;49.574;11.170;2023-03-31T14:07:17;12.20;99.90
13409;DHT22;6775;49.574;11.170;2023-03-31T14:09:46;12.30;99.90
13409;DHT22;6775;49.574;11.170;2023-03-31T14:12:21;12.40;99.90
13409;DHT22;6775;49.574;11.170;2023-03-31T14:14:52;12.60;99.90
13409;DHT22;6775;49.574;11.170;2023-03-31T14:17:21;12.70;99.90
13409;DHT22;6775;49.574;11.170;2023-03-31T14:20:02;12.80;99.90
13409;DHT22;6775;49.574;11.170;2023-03-31T14:22:45;12.80;99.90
13409;DHT22;6775;49.574;11.170;2023-03-31T14:25:20;12.90;99.90
13409;DHT22;6775;49.574;11.170;2023-03-31T14:27:59;13.00;99.90
13409;DHT22;6775;49.574;11.170;2023-03-31T14:30:37;13.10;99.90
13409;DHT22;6775;49.574;11.170;2023-03-31T14:33:22;13.20;99.90
13409;DHT22;6775;49.574;11.170;2023-03-31T14:35:56;13.40;99.90
13409;DHT22;6775;49.574;11.170;2023-03-31T14:38:27;13.40;99.90
13409;DHT22;6775;49.574;11.170;2023-03-31T14:40:55;13.20;99.90
13409;DHT22;6775;49.574;11.170;2023-03-31T14:43:28;13.00;99.90
13409;DHT22;6775;49.574;11.170;2023-03-31T14:45:59;12.80;99.90
13409;DHT22;6775;49.574;11.170;2023-03-31T14:48:31;12.70;99.90
13409;DHT22;6775;49.574;11.170;2023-03-31T14:51:01;12.60;99.90
13409;DHT22;6775;49.574;11.170;2023-03-31T14:53:29;12.60;99.90
13409;DHT22;6775;49.574;11.170;2023-03-31T14:56:01;12.70;99.90
13409;DHT22;6775;49.574;11.170;2023-03-31T14:58:31;12.80;99.90
13409;DHT22;6775;49.574;11.170;2023-03-31T15:01:02;12.90;99.90
13409;DHT22;6775;49.574;11.170;2023-03-31T15:03:34;13.00;99.90
13409;DHT22;6775;49.574;11.170;2023-03-31T15:06:04;13.00;99.90
13409;DHT22;6775;49.574;11.170;2023-03-31T15:08:32;13.00;99.90
13409;DHT22;6775;49.574;11.170;2023-03-31T15:11:05;13.00;99.90
13409;DHT22;6775;49.574;11.170;2023-03-31T15:13:40;13.00;99.90
13409;DHT22;6775;49.574;11.170;2023-03-31T15:16:30;12.90;99.90
13409;DHT22;6775;49.574;11.170;2023-03-31T15:19:03;12.90;99.90
13409;DHT22;6775;49.574;11.170;2023-03-31T15:21:36;13.00;99.90
13409;DHT22;6775;49.574;11.170;2023-03-31T15:24:04;13.10;99.90
13409;DHT22;6775;49.574;11.170;2023-03-31T15:26:36;13.20;99.90
13409;DHT22;6775;49.574;11.170;2023-03-31T15:29:10;13.20;99.90
13409;DHT22;6775;49.574;11.170;2023-03-31T15:31:39;13.30;99.90
13409;DHT22;6775;49.574;11.170;2023-03-31T15:34:14;13.20;99.90
13409;DHT22;6775;49.574;11.170;2023-03-31T15:36:42;13.10;99.90
13409;DHT22;6775;49.574;11.170;2023-03-31T15:39:11;13.00;99.90
13409;DHT22;6775;49.574;11.170;2023-03-31T15:41:40;13.00;99.90
13409;DHT22;6775;49.574;11.170;2023-03-31T15:44:28;12.80;99.90
13409;DHT22;6775;49.574;11.170;2023-03-31T15:46:58;12.80;99.90
13409;DHT22;6775;49.574;11.170;2023-03-31T15:49:28;12.80;99.90
13409;DHT22;6775;49.574;11.170;2023-03-31T15:51:56;12.80;99.90
13409;DHT22;6775;49.574;11.170;2023-03-31T15:54:32;12.70;99.90
13409;DHT22;6775;49.574;11.170;2023-03-31T15:57:02;12.70;99.90
13409;DHT22;6775;49.574;11.170;2023-03-31T15:59:31;12.70;99.90
13409;DHT22;6775;49.574;11.170;2023-03-31T16:02:23;12.60;99.90
13409;DHT22;6775;49.574;11.170;2023-03-31T16:04:55;12.60;99.90
13409;DHT22;6775;49.574;11.170;2023-03-31T16:07:25;12.60;99.90
13409;DHT22;6775;49.574;11.170;2023-03-31T16:09:55;12.50;99.90
13409;DHT22;6775;49.574;11.170;2023-03-31T16:12:28;12.50;99.90
13409;DHT22;6775;49.574;11.170;2023-03-31T16:15:00;12.40;99.90
13409;DHT22;6775;49.574;11.170;2023-03-31T16:17:33;12.40;99.90
13409;DHT22;6775;49.574;11.170;2023-03-31T16:20:07;12.30;99.90
13409;DHT22;6775;49.574;11.170;2023-03-31T16:22:41;12.30;99.90
13409;DHT22;6775;49.574;11.170;2023-03-31T16:25:11;12.20;99.90
13409;DHT22;6775;49.574;11.170;2023-03-31T16:27:41;12.20;99.90
13409;DHT22;6775;49.574;11.170;2023-03-31T16:30:12;12.20;99.90
13409;DHT22;6775;49.574;11.170;2023-03-31T16:33:00;12.10;99.90
13409;DHT22;6775;49.574;11.170;2023-03-31T16:35:31;12.10;99.90
13409;DHT22;6775;49.574;11.170;2023-03-31T16:37:59;12.10;99.90